Des Moines, Iowa
Current Conditions -  °F | °C
As of 3:54 AM on Wednesday 26 Nov 2014 (Local Time) from KDSM Reporting Station
Light Snow Light Snow  
Wind Chill: 23°   Ceiling: 2400
Heat Index: 31°   Visibility: 2.5mi
Dew Point: 27°   Wind: 9mph
Humidity: 85%   Direction: 120°ESE
Pressure: 29.9"   Gusts: NA
Location:  41.59°N, 93.61°W
Report Text: KDSM 260954Z 12008KT 2 1/2SM -SN BR OVC024 M01/M03 A2990 RMK AO2 SLP134 P0002 T10061028
Loading
Personal Weather Stations






























Interactive Weather Map New forecast layout! Learn more

10-Day Weather Forecast

Advertisements
Track Severe Weather on mobile